메인 페이지
METAR-TAF:

METAR-TAF

공항 :

Eppley Airfield

오마하, 네브래스카, 미국

위도: 41-18-37N, 경도: 095-53-57W, 고도: 299m

현재 날씨관측

예보는 50분 전, 20:52시(UTC)에 발표되었습니다.
15kt
온도 -1°C
습도 86%
기압 1025 hPa
시정: 11.3km
고도 800ft 상공 구름 많음
고도 1100ft 상공 흐림
약한눈

METAR: KOMA 252052Z 36015KT 7SM -SN BKN008 OVC011 M01/M03 A3026 RMK AO2 FZDZE29SNB29 SLP256 P0000 60000 I1000 I3001 T10111028 56006

시각: 16:42 (21:42 UTC)

예보

예보는 28분 전, 21:14시(UTC)에 발표되었습니다.
예보 대상 시간: 25일 21시부터 26일 18시까지 (UTC)
12kt
시정: 10km
고도 1500ft 상공 흐림
일시적
25일 21시부터 25일 23시까지 (UTC)
시정: 8.0km
고도 900ft 상공 흐림
(약한) 결빙, 이슬비
25일 2300시부터 (UTC)
12kt
시정: 6.4km
고도 1500ft 상공 흐림
약한눈, 박무
26일 0000시부터 (UTC)
13kt
시정: 3.2km
고도 900ft 상공 흐림
약한눈, 박무
26일 0500시부터 (UTC)
12kt
시정: 3.2km
고도 1500ft 상공 흐림
약한눈, 박무
26일 1200시부터 (UTC)
10kt
시정: 10km
고도 3500ft 상공 흐림

TAF: KOMA 252114Z 2521/2618 36012KT P6SM OVC015 TEMPO 2521/2523 5SM -FZDZ OVC009 FM252300 01012KT 4SM -SN BR OVC015 FM260000 01013KT 2SM -SN BR OVC009 FM260500 35012KT 2SM -SN BR OVC015 FM261200 35010KT P6SM OVC035

4,000개 이상의 공항 관측 자료 및 예보 (METAR 및 TAF 보고).

지도상에서 검색 가능한 기상관측소가 노란 점과 빨간 점으로 표시되어 있습니다.

기상관측소 명을 보려면 표시 위로 마우스를 이동하세요.

날씨 관측과 예보를 보려면 클릭하세요.

지도 변경 : 확대하려면 엑스 표시가 있는 녹색 버튼, 축소하려면 빼기 표시가 있는 녹색 버튼, 다음 페이지의 지도를 보려면 녹색 화살표를 클릭하세요.


METAR-TAF: